sensor_id;sensor_type;location;lat;lon;timestamp;temperature;humidity
42615;DHT22;28754;47.700;7.924;2023-04-09T00:02:33;3.90;99.90
42615;DHT22;28754;47.700;7.924;2023-04-09T00:05:20;3.80;99.90
42615;DHT22;28754;47.700;7.924;2023-04-09T00:08:07;3.80;99.90
42615;DHT22;28754;47.700;7.924;2023-04-09T00:10:54;3.80;99.90
42615;DHT22;28754;47.700;7.924;2023-04-09T00:13:43;3.80;99.90
42615;DHT22;28754;47.700;7.924;2023-04-09T00:16:29;3.80;99.90
42615;DHT22;28754;47.700;7.924;2023-04-09T00:19:16;3.70;99.90
42615;DHT22;28754;47.700;7.924;2023-04-09T00:22:02;3.70;99.90
42615;DHT22;28754;47.700;7.924;2023-04-09T00:24:49;3.70;99.90
42615;DHT22;28754;47.700;7.924;2023-04-09T00:27:36;3.70;99.90
42615;DHT22;28754;47.700;7.924;2023-04-09T00:30:23;3.70;99.90
42615;DHT22;28754;47.700;7.924;2023-04-09T00:33:09;3.70;99.90
42615;DHT22;28754;47.700;7.924;2023-04-09T00:35:56;3.70;99.90
42615;DHT22;28754;47.700;7.924;2023-04-09T00:38:43;3.70;99.90
42615;DHT22;28754;47.700;7.924;2023-04-09T00:41:30;3.60;99.90
42615;DHT22;28754;47.700;7.924;2023-04-09T00:44:17;3.70;99.90
42615;DHT22;28754;47.700;7.924;2023-04-09T00:47:03;3.60;99.90
42615;DHT22;28754;47.700;7.924;2023-04-09T00:49:50;3.70;99.90
42615;DHT22;28754;47.700;7.924;2023-04-09T00:52:37;3.70;99.90
42615;DHT22;28754;47.700;7.924;2023-04-09T00:55:24;3.80;99.90
42615;DHT22;28754;47.700;7.924;2023-04-09T00:58:11;3.80;99.90
42615;DHT22;28754;47.700;7.924;2023-04-09T01:00:57;3.80;99.90
42615;DHT22;28754;47.700;7.924;2023-04-09T01:03:44;3.80;99.90
42615;DHT22;28754;47.700;7.924;2023-04-09T01:06:48;3.70;99.90
42615;DHT22;28754;47.700;7.924;2023-04-09T01:09:41;3.80;99.90
42615;DHT22;28754;47.700;7.924;2023-04-09T01:12:57;3.80;99.90
42615;DHT22;28754;47.700;7.924;2023-04-09T01:15:55;3.90;99.90
42615;DHT22;28754;47.700;7.924;2023-04-09T01:21:40;3.80;99.90
42615;DHT22;28754;47.700;7.924;2023-04-09T01:24:46;3.70;99.90
42615;DHT22;28754;47.700;7.924;2023-04-09T01:31:08;3.70;99.90
42615;DHT22;28754;47.700;7.924;2023-04-09T01:34:00;3.80;99.90
42615;DHT22;28754;47.700;7.924;2023-04-09T01:36:53;3.80;99.90
42615;DHT22;28754;47.700;7.924;2023-04-09T01:39:42;3.80;99.90
42615;DHT22;28754;47.700;7.924;2023-04-09T01:42:29;3.80;99.90
42615;DHT22;28754;47.700;7.924;2023-04-09T01:45:17;3.90;99.90
42615;DHT22;28754;47.700;7.924;2023-04-09T01:48:04;3.90;99.90
42615;DHT22;28754;47.700;7.924;2023-04-09T01:50:51;3.90;99.90
42615;DHT22;28754;47.700;7.924;2023-04-09T01:53:39;4.00;99.90
42615;DHT22;28754;47.700;7.924;2023-04-09T01:56:26;4.00;99.90
42615;DHT22;28754;47.700;7.924;2023-04-09T01:59:14;3.90;99.90
42615;DHT22;28754;47.700;7.924;2023-04-09T02:02:07;3.90;99.90
42615;DHT22;28754;47.700;7.924;2023-04-09T02:04:58;3.90;99.90
42615;DHT22;28754;47.700;7.924;2023-04-09T02:07:54;3.80;99.90
42615;DHT22;28754;47.700;7.924;2023-04-09T02:10:43;3.70;99.90
42615;DHT22;28754;47.700;7.924;2023-04-09T02:13:39;3.70;99.90
42615;DHT22;28754;47.700;7.924;2023-04-09T02:16:29;3.60;99.90
42615;DHT22;28754;47.700;7.924;2023-04-09T02:19:17;3.60;99.90
42615;DHT22;28754;47.700;7.924;2023-04-09T02:22:04;3.60;99.90
42615;DHT22;28754;47.700;7.924;2023-04-09T02:24:51;3.50;99.90
42615;DHT22;28754;47.700;7.924;2023-04-09T02:27:37;3.50;99.90
42615;DHT22;28754;47.700;7.924;2023-04-09T02:30:24;3.40;99.90
42615;DHT22;28754;47.700;7.924;2023-04-09T02:33:11;3.50;99.90
42615;DHT22;28754;47.700;7.924;2023-04-09T02:35:57;3.40;99.90
42615;DHT22;28754;47.700;7.924;2023-04-09T02:38:44;3.40;99.90
42615;DHT22;28754;47.700;7.924;2023-04-09T02:41:31;3.40;99.90
42615;DHT22;28754;47.700;7.924;2023-04-09T02:44:18;3.30;99.90
42615;DHT22;28754;47.700;7.924;2023-04-09T02:47:04;3.30;99.90
42615;DHT22;28754;47.700;7.924;2023-04-09T02:49:51;3.30;99.90
42615;DHT22;28754;47.700;7.924;2023-04-09T02:52:38;3.30;99.90
42615;DHT22;28754;47.700;7.924;2023-04-09T02:55:24;3.30;99.90
42615;DHT22;28754;47.700;7.924;2023-04-09T02:58:11;3.30;99.90
42615;DHT22;28754;47.700;7.924;2023-04-09T03:00:58;3.30;99.90
42615;DHT22;28754;47.700;7.924;2023-04-09T03:03:45;3.30;99.90
42615;DHT22;28754;47.700;7.924;2023-04-09T03:06:32;3.30;99.90
42615;DHT22;28754;47.700;7.924;2023-04-09T03:09:18;3.20;99.90
42615;DHT22;28754;47.700;7.924;2023-04-09T03:12:05;3.20;99.90
42615;DHT22;28754;47.700;7.924;2023-04-09T03:14:52;3.20;99.90
42615;DHT22;28754;47.700;7.924;2023-04-09T03:17:38;3.20;99.90
42615;DHT22;28754;47.700;7.924;2023-04-09T03:20:25;3.20;99.90
42615;DHT22;28754;47.700;7.924;2023-04-09T03:23:12;3.20;99.90
42615;DHT22;28754;47.700;7.924;2023-04-09T03:26:04;3.20;99.90
42615;DHT22;28754;47.700;7.924;2023-04-09T03:28:57;3.20;99.90
42615;DHT22;28754;47.700;7.924;2023-04-09T03:31:44;3.10;99.90
42615;DHT22;28754;47.700;7.924;2023-04-09T03:34:31;3.10;99.90
42615;DHT22;28754;47.700;7.924;2023-04-09T03:37:17;3.10;99.90
42615;DHT22;28754;47.700;7.924;2023-04-09T03:40:05;3.10;99.90
42615;DHT22;28754;47.700;7.924;2023-04-09T03:42:52;3.10;99.90
42615;DHT22;28754;47.700;7.924;2023-04-09T03:45:40;3.00;99.90
42615;DHT22;28754;47.700;7.924;2023-04-09T03:48:38;3.00;99.90
42615;DHT22;28754;47.700;7.924;2023-04-09T03:51:25;3.00;99.90
42615;DHT22;28754;47.700;7.924;2023-04-09T03:54:16;3.00;99.90
42615;DHT22;28754;47.700;7.924;2023-04-09T03:57:04;3.00;99.90
42615;DHT22;28754;47.700;7.924;2023-04-09T03:59:51;3.00;99.90
42615;DHT22;28754;47.700;7.924;2023-04-09T04:02:40;3.00;99.90
42615;DHT22;28754;47.700;7.924;2023-04-09T04:05:29;3.00;99.90
42615;DHT22;28754;47.700;7.924;2023-04-09T04:08:18;2.90;99.90
42615;DHT22;28754;47.700;7.924;2023-04-09T04:11:06;2.90;99.90
42615;DHT22;28754;47.700;7.924;2023-04-09T04:13:54;2.90;99.90
42615;DHT22;28754;47.700;7.924;2023-04-09T04:16:42;2.90;99.90
42615;DHT22;28754;47.700;7.924;2023-04-09T04:19:30;2.90;99.90
42615;DHT22;28754;47.700;7.924;2023-04-09T04:22:17;2.90;99.90
42615;DHT22;28754;47.700;7.924;2023-04-09T04:25:07;2.90;99.90
42615;DHT22;28754;47.700;7.924;2023-04-09T04:27:54;2.80;99.90
42615;DHT22;28754;47.700;7.924;2023-04-09T04:30:45;2.80;99.90
42615;DHT22;28754;47.700;7.924;2023-04-09T04:33:32;2.80;99.90
42615;DHT22;28754;47.700;7.924;2023-04-09T04:36:19;2.80;99.90
42615;DHT22;28754;47.700;7.924;2023-04-09T04:39:10;2.80;99.90
42615;DHT22;28754;47.700;7.924;2023-04-09T04:42:23;2.80;99.90
42615;DHT22;28754;47.700;7.924;2023-04-09T04:45:10;2.80;99.90
42615;DHT22;28754;47.700;7.924;2023-04-09T04:48:10;2.80;99.90
42615;DHT22;28754;47.700;7.924;2023-04-09T04:50:58;2.80;99.90
42615;DHT22;28754;47.700;7.924;2023-04-09T04:53:51;2.70;99.90
42615;DHT22;28754;47.700;7.924;2023-04-09T04:56:38;2.80;99.90
42615;DHT22;28754;47.700;7.924;2023-04-09T04:59:38;2.80;99.90
42615;DHT22;28754;47.700;7.924;2023-04-09T05:02:27;2.70;99.90
42615;DHT22;28754;47.700;7.924;2023-04-09T05:05:39;2.70;99.90
42615;DHT22;28754;47.700;7.924;2023-04-09T05:08:26;2.70;99.90
42615;DHT22;28754;47.700;7.924;2023-04-09T05:11:15;2.70;99.90
42615;DHT22;28754;47.700;7.924;2023-04-09T05:14:04;2.70;99.90
42615;DHT22;28754;47.700;7.924;2023-04-09T05:16:52;2.70;99.90
42615;DHT22;28754;47.700;7.924;2023-04-09T05:19:43;2.80;99.90
42615;DHT22;28754;47.700;7.924;2023-04-09T05:22:32;2.80;99.90
42615;DHT22;28754;47.700;7.924;2023-04-09T05:25:18;2.80;99.90
42615;DHT22;28754;47.700;7.924;2023-04-09T05:28:05;2.80;99.90
42615;DHT22;28754;47.700;7.924;2023-04-09T05:30:54;2.80;99.90
42615;DHT22;28754;47.700;7.924;2023-04-09T05:33:41;2.80;99.90
42615;DHT22;28754;47.700;7.924;2023-04-09T05:36:35;2.90;99.90
42615;DHT22;28754;47.700;7.924;2023-04-09T05:39:22;2.90;99.90
42615;DHT22;28754;47.700;7.924;2023-04-09T05:42:09;2.90;99.90
42615;DHT22;28754;47.700;7.924;2023-04-09T05:45:17;3.00;99.90
42615;DHT22;28754;47.700;7.924;2023-04-09T05:48:11;3.00;99.90
42615;DHT22;28754;47.700;7.924;2023-04-09T05:50:59;3.00;99.90
42615;DHT22;28754;47.700;7.924;2023-04-09T05:53:46;3.10;99.90
42615;DHT22;28754;47.700;7.924;2023-04-09T05:56:33;3.10;99.90
42615;DHT22;28754;47.700;7.924;2023-04-09T05:59:21;3.10;99.90
42615;DHT22;28754;47.700;7.924;2023-04-09T06:02:08;3.20;99.90
42615;DHT22;28754;47.700;7.924;2023-04-09T06:04:54;3.30;99.90
42615;DHT22;28754;47.700;7.924;2023-04-09T06:07:41;3.40;99.90
42615;DHT22;28754;47.700;7.924;2023-04-09T06:10:28;3.40;99.90
42615;DHT22;28754;47.700;7.924;2023-04-09T06:13:17;3.60;99.90
42615;DHT22;28754;47.700;7.924;2023-04-09T06:16:07;3.50;99.90
42615;DHT22;28754;47.700;7.924;2023-04-09T06:18:55;4.40;99.90
42615;DHT22;28754;47.700;7.924;2023-04-09T06:21:42;5.60;99.90
42615;DHT22;28754;47.700;7.924;2023-04-09T06:24:33;5.10;99.90
42615;DHT22;28754;47.700;7.924;2023-04-09T06:27:19;4.60;99.90
42615;DHT22;28754;47.700;7.924;2023-04-09T06:30:08;4.50;99.90
42615;DHT22;28754;47.700;7.924;2023-04-09T06:32:56;4.40;99.90
42615;DHT22;28754;47.700;7.924;2023-04-09T06:35:42;4.40;99.90
42615;DHT22;28754;47.700;7.924;2023-04-09T06:38:29;4.50;99.90
42615;DHT22;28754;47.700;7.924;2023-04-09T06:41:15;4.60;99.90
42615;DHT22;28754;47.700;7.924;2023-04-09T06:44:06;4.70;99.90
42615;DHT22;28754;47.700;7.924;2023-04-09T06:46:52;4.80;99.90
42615;DHT22;28754;47.700;7.924;2023-04-09T06:49:39;4.70;99.90
42615;DHT22;28754;47.700;7.924;2023-04-09T06:52:26;4.90;99.90
42615;DHT22;28754;47.700;7.924;2023-04-09T06:55:12;5.00;99.90
42615;DHT22;28754;47.700;7.924;2023-04-09T06:57:59;5.10;99.90
42615;DHT22;28754;47.700;7.924;2023-04-09T07:00:47;5.30;99.90
42615;DHT22;28754;47.700;7.924;2023-04-09T07:03:34;5.60;99.90
42615;DHT22;28754;47.700;7.924;2023-04-09T07:06:21;5.60;99.90
42615;DHT22;28754;47.700;7.924;2023-04-09T07:09:08;5.30;99.90
42615;DHT22;28754;47.700;7.924;2023-04-09T07:11:54;5.50;99.90
42615;DHT22;28754;47.700;7.924;2023-04-09T07:14:41;5.60;99.90
42615;DHT22;28754;47.700;7.924;2023-04-09T07:17:29;5.70;99.90
42615;DHT22;28754;47.700;7.924;2023-04-09T07:20:16;5.80;99.90
42615;DHT22;28754;47.700;7.924;2023-04-09T07:23:03;6.00;99.90
42615;DHT22;28754;47.700;7.924;2023-04-09T07:25:50;6.20;99.90
42615;DHT22;28754;47.700;7.924;2023-04-09T07:28:36;6.30;99.90
42615;DHT22;28754;47.700;7.924;2023-04-09T07:31:23;6.40;99.90
42615;DHT22;28754;47.700;7.924;2023-04-09T07:34:10;6.40;99.90
42615;DHT22;28754;47.700;7.924;2023-04-09T07:36:56;6.60;99.90
42615;DHT22;28754;47.700;7.924;2023-04-09T07:39:43;6.80;99.90
42615;DHT22;28754;47.700;7.924;2023-04-09T07:42:30;7.00;99.90
42615;DHT22;28754;47.700;7.924;2023-04-09T07:45:17;7.10;99.90
42615;DHT22;28754;47.700;7.924;2023-04-09T07:48:03;7.10;99.90
42615;DHT22;28754;47.700;7.924;2023-04-09T07:50:50;7.10;99.90
42615;DHT22;28754;47.700;7.924;2023-04-09T07:53:37;7.20;99.90
42615;DHT22;28754;47.700;7.924;2023-04-09T07:56:24;7.30;99.90
42615;DHT22;28754;47.700;7.924;2023-04-09T07:59:11;7.30;99.90
42615;DHT22;28754;47.700;7.924;2023-04-09T08:01:58;7.30;99.90
42615;DHT22;28754;47.700;7.924;2023-04-09T08:04:45;7.20;99.90
42615;DHT22;28754;47.700;7.924;2023-04-09T08:07:32;7.40;99.90
42615;DHT22;28754;47.700;7.924;2023-04-09T08:10:18;7.40;99.90
42615;DHT22;28754;47.700;7.924;2023-04-09T08:13:05;7.40;99.90
42615;DHT22;28754;47.700;7.924;2023-04-09T08:15:52;7.60;99.90
42615;DHT22;28754;47.700;7.924;2023-04-09T08:18:39;7.70;99.90
42615;DHT22;28754;47.700;7.924;2023-04-09T08:21:26;7.70;99.90
42615;DHT22;28754;47.700;7.924;2023-04-09T08:24:13;7.90;99.90
42615;DHT22;28754;47.700;7.924;2023-04-09T08:27:00;8.00;99.90
42615;DHT22;28754;47.700;7.924;2023-04-09T08:29:47;8.10;99.90
42615;DHT22;28754;47.700;7.924;2023-04-09T08:32:34;8.10;99.90
42615;DHT22;28754;47.700;7.924;2023-04-09T08:35:20;8.30;99.90
42615;DHT22;28754;47.700;7.924;2023-04-09T08:38:07;8.30;99.90
42615;DHT22;28754;47.700;7.924;2023-04-09T08:40:54;8.30;99.90
42615;DHT22;28754;47.700;7.924;2023-04-09T08:43:40;8.50;99.90
42615;DHT22;28754;47.700;7.924;2023-04-09T08:46:28;8.40;99.90
42615;DHT22;28754;47.700;7.924;2023-04-09T08:49:15;8.40;99.90
42615;DHT22;28754;47.700;7.924;2023-04-09T08:52:01;8.60;99.90
42615;DHT22;28754;47.700;7.924;2023-04-09T08:54:49;8.90;99.90
42615;DHT22;28754;47.700;7.924;2023-04-09T08:57:37;8.90;99.90
42615;DHT22;28754;47.700;7.924;2023-04-09T09:00:24;9.00;99.90
42615;DHT22;28754;47.700;7.924;2023-04-09T09:03:11;8.90;99.90
42615;DHT22;28754;47.700;7.924;2023-04-09T09:05:58;8.80;99.90
42615;DHT22;28754;47.700;7.924;2023-04-09T09:09:02;8.80;99.90
42615;DHT22;28754;47.700;7.924;2023-04-09T09:11:51;9.30;99.90
42615;DHT22;28754;47.700;7.924;2023-04-09T09:14:38;9.30;99.90
42615;DHT22;28754;47.700;7.924;2023-04-09T09:17:25;9.60;99.90
42615;DHT22;28754;47.700;7.924;2023-04-09T09:20:18;9.80;99.90
42615;DHT22;28754;47.700;7.924;2023-04-09T09:23:06;9.80;99.90
42615;DHT22;28754;47.700;7.924;2023-04-09T09:25:53;9.80;99.90
42615;DHT22;28754;47.700;7.924;2023-04-09T09:28:40;9.70;99.90
42615;DHT22;28754;47.700;7.924;2023-04-09T09:31:28;10.00;99.90
42615;DHT22;28754;47.700;7.924;2023-04-09T09:34:15;10.00;99.90
42615;DHT22;28754;47.700;7.924;2023-04-09T09:37:26;10.00;99.90
42615;DHT22;28754;47.700;7.924;2023-04-09T09:40:28;10.30;99.90
42615;DHT22;28754;47.700;7.924;2023-04-09T09:43:21;10.00;99.90
42615;DHT22;28754;47.700;7.924;2023-04-09T09:46:12;10.00;99.90
42615;DHT22;28754;47.700;7.924;2023-04-09T09:49:08;10.30;99.90
42615;DHT22;28754;47.700;7.924;2023-04-09T09:51:58;10.20;99.90
42615;DHT22;28754;47.700;7.924;2023-04-09T09:54:51;10.40;99.90
42615;DHT22;28754;47.700;7.924;2023-04-09T09:57:41;10.60;99.90
42615;DHT22;28754;47.700;7.924;2023-04-09T10:00:31;10.90;99.90
42615;DHT22;28754;47.700;7.924;2023-04-09T10:03:21;11.00;99.90
42615;DHT22;28754;47.700;7.924;2023-04-09T10:06:11;11.00;99.90
42615;DHT22;28754;47.700;7.924;2023-04-09T10:09:03;11.20;99.90
42615;DHT22;28754;47.700;7.924;2023-04-09T10:11:52;11.00;99.90
42615;DHT22;28754;47.700;7.924;2023-04-09T10:14:42;11.20;99.90
42615;DHT22;28754;47.700;7.924;2023-04-09T10:17:30;11.10;99.90
42615;DHT22;28754;47.700;7.924;2023-04-09T10:20:33;11.10;99.90
42615;DHT22;28754;47.700;7.924;2023-04-09T10:23:43;10.90;99.90
42615;DHT22;28754;47.700;7.924;2023-04-09T10:26:34;10.70;99.90
42615;DHT22;28754;47.700;7.924;2023-04-09T10:29:28;11.00;99.90
42615;DHT22;28754;47.700;7.924;2023-04-09T10:32:22;11.10;99.90
42615;DHT22;28754;47.700;7.924;2023-04-09T10:35:27;11.40;99.90
42615;DHT22;28754;47.700;7.924;2023-04-09T10:38:14;11.50;99.90
42615;DHT22;28754;47.700;7.924;2023-04-09T10:41:29;11.60;99.90
42615;DHT22;28754;47.700;7.924;2023-04-09T10:44:27;11.60;99.90
42615;DHT22;28754;47.700;7.924;2023-04-09T10:47:34;11.70;99.90
42615;DHT22;28754;47.700;7.924;2023-04-09T10:50:26;11.20;99.90
42615;DHT22;28754;47.700;7.924;2023-04-09T10:53:22;11.90;99.90
42615;DHT22;28754;47.700;7.924;2023-04-09T10:56:16;11.80;99.90
42615;DHT22;28754;47.700;7.924;2023-04-09T10:59:05;11.80;99.90
42615;DHT22;28754;47.700;7.924;2023-04-09T11:01:52;11.70;99.90
42615;DHT22;28754;47.700;7.924;2023-04-09T11:08:35;12.00;99.90
42615;DHT22;28754;47.700;7.924;2023-04-09T11:11:32;11.80;99.90
42615;DHT22;28754;47.700;7.924;2023-04-09T11:19:17;11.90;99.90
42615;DHT22;28754;47.700;7.924;2023-04-09T11:22:16;11.80;99.90
42615;DHT22;28754;47.700;7.924;2023-04-09T11:25:18;12.50;99.90
42615;DHT22;28754;47.700;7.924;2023-04-09T11:28:33;12.00;99.90
42615;DHT22;28754;47.700;7.924;2023-04-09T11:31:45;12.20;99.90
42615;DHT22;28754;47.700;7.924;2023-04-09T11:34:35;12.40;99.90
42615;DHT22;28754;47.700;7.924;2023-04-09T11:37:23;12.50;99.90
42615;DHT22;28754;47.700;7.924;2023-04-09T11:40:23;12.70;99.90
42615;DHT22;28754;47.700;7.924;2023-04-09T11:43:11;12.60;99.90
42615;DHT22;28754;47.700;7.924;2023-04-09T11:45:58;13.00;99.90
42615;DHT22;28754;47.700;7.924;2023-04-09T11:48:45;13.40;99.90
42615;DHT22;28754;47.700;7.924;2023-04-09T11:51:39;13.90;99.90
42615;DHT22;28754;47.700;7.924;2023-04-09T11:59:04;13.70;99.90
42615;DHT22;28754;47.700;7.924;2023-04-09T12:01:58;13.30;99.90
42615;DHT22;28754;47.700;7.924;2023-04-09T12:05:20;13.00;99.90
42615;DHT22;28754;47.700;7.924;2023-04-09T12:08:23;13.50;99.90
42615;DHT22;28754;47.700;7.924;2023-04-09T12:16:07;13.60;99.90
42615;DHT22;28754;47.700;7.924;2023-04-09T12:19:15;14.00;99.90
42615;DHT22;28754;47.700;7.924;2023-04-09T12:22:02;14.10;99.90
42615;DHT22;28754;47.700;7.924;2023-04-09T12:24:49;13.80;99.90
42615;DHT22;28754;47.700;7.924;2023-04-09T12:27:35;14.10;99.90
42615;DHT22;28754;47.700;7.924;2023-04-09T12:30:23;14.00;99.90
42615;DHT22;28754;47.700;7.924;2023-04-09T12:33:10;14.20;99.90
42615;DHT22;28754;47.700;7.924;2023-04-09T12:36:09;13.90;99.90
42615;DHT22;28754;47.700;7.924;2023-04-09T12:39:16;13.80;99.90
42615;DHT22;28754;47.700;7.924;2023-04-09T12:43:01;14.20;99.90
42615;DHT22;28754;47.700;7.924;2023-04-09T12:45:58;13.60;99.90
42615;DHT22;28754;47.700;7.924;2023-04-09T12:49:00;13.60;99.90
42615;DHT22;28754;47.700;7.924;2023-04-09T12:51:54;13.70;99.90
42615;DHT22;28754;47.700;7.924;2023-04-09T12:54:44;13.40;99.90
42615;DHT22;28754;47.700;7.924;2023-04-09T12:57:37;13.20;99.90
42615;DHT22;28754;47.700;7.924;2023-04-09T13:00:27;13.40;99.90
42615;DHT22;28754;47.700;7.924;2023-04-09T13:03:18;13.40;99.90
42615;DHT22;28754;47.700;7.924;2023-04-09T13:06:06;13.90;99.90
42615;DHT22;28754;47.700;7.924;2023-04-09T13:08:54;13.90;99.90
42615;DHT22;28754;47.700;7.924;2023-04-09T13:11:41;13.70;99.90
42615;DHT22;28754;47.700;7.924;2023-04-09T13:14:28;13.50;99.90
42615;DHT22;28754;47.700;7.924;2023-04-09T13:17:47;13.70;99.90
42615;DHT22;28754;47.700;7.924;2023-04-09T13:20:37;13.80;99.90
42615;DHT22;28754;47.700;7.924;2023-04-09T13:23:24;13.50;99.90
42615;DHT22;28754;47.700;7.924;2023-04-09T13:26:10;13.70;99.90
42615;DHT22;28754;47.700;7.924;2023-04-09T13:28:57;13.60;99.90
42615;DHT22;28754;47.700;7.924;2023-04-09T13:31:50;13.60;99.90
42615;DHT22;28754;47.700;7.924;2023-04-09T13:34:39;13.80;99.90
42615;DHT22;28754;47.700;7.924;2023-04-09T13:37:33;14.00;99.90
42615;DHT22;28754;47.700;7.924;2023-04-09T13:40:33;13.90;99.90
42615;DHT22;28754;47.700;7.924;2023-04-09T13:43:22;13.80;99.90
42615;DHT22;28754;47.700;7.924;2023-04-09T13:46:16;14.30;99.90
42615;DHT22;28754;47.700;7.924;2023-04-09T13:49:05;14.30;99.90
42615;DHT22;28754;47.700;7.924;2023-04-09T13:52:13;14.40;99.90
42615;DHT22;28754;47.700;7.924;2023-04-09T13:55:50;13.80;99.90
42615;DHT22;28754;47.700;7.924;2023-04-09T13:58:55;14.30;99.90
42615;DHT22;28754;47.700;7.924;2023-04-09T14:01:42;16.50;99.90
42615;DHT22;28754;47.700;7.924;2023-04-09T14:04:29;17.40;99.90
42615;DHT22;28754;47.700;7.924;2023-04-09T14:07:26;17.40;99.90
42615;DHT22;28754;47.700;7.924;2023-04-09T14:10:13;17.70;99.90
42615;DHT22;28754;47.700;7.924;2023-04-09T14:13:11;17.30;99.90
42615;DHT22;28754;47.700;7.924;2023-04-09T14:29:40;15.90;99.90
42615;DHT22;28754;47.700;7.924;2023-04-09T14:32:29;16.40;99.90
42615;DHT22;28754;47.700;7.924;2023-04-09T14:35:34;16.70;99.90
42615;DHT22;28754;47.700;7.924;2023-04-09T14:38:33;16.60;99.90
42615;DHT22;28754;47.700;7.924;2023-04-09T14:41:25;16.60;99.90
42615;DHT22;28754;47.700;7.924;2023-04-09T14:44:29;15.90;99.90
42615;DHT22;28754;47.700;7.924;2023-04-09T14:47:25;15.60;99.90
42615;DHT22;28754;47.700;7.924;2023-04-09T14:50:27;15.70;99.90
42615;DHT22;28754;47.700;7.924;2023-04-09T14:53:28;15.40;99.90
42615;DHT22;28754;47.700;7.924;2023-04-09T14:56:55;15.00;99.90
42615;DHT22;28754;47.700;7.924;2023-04-09T15:07:12;14.60;99.90
42615;DHT22;28754;47.700;7.924;2023-04-09T15:09:59;14.50;99.90
42615;DHT22;28754;47.700;7.924;2023-04-09T15:12:46;14.40;99.90
42615;DHT22;28754;47.700;7.924;2023-04-09T15:15:33;14.60;99.90
42615;DHT22;28754;47.700;7.924;2023-04-09T15:18:20;14.50;99.90
42615;DHT22;28754;47.700;7.924;2023-04-09T15:21:07;14.20;99.90
42615;DHT22;28754;47.700;7.924;2023-04-09T15:23:54;13.90;99.90
42615;DHT22;28754;47.700;7.924;2023-04-09T15:26:44;14.40;99.90
42615;DHT22;28754;47.700;7.924;2023-04-09T15:29:31;14.10;99.90
42615;DHT22;28754;47.700;7.924;2023-04-09T15:32:21;14.20;99.90
42615;DHT22;28754;47.700;7.924;2023-04-09T15:35:08;13.80;99.90
42615;DHT22;28754;47.700;7.924;2023-04-09T15:38:03;13.80;99.90
42615;DHT22;28754;47.700;7.924;2023-04-09T15:40:57;13.70;99.90
42615;DHT22;28754;47.700;7.924;2023-04-09T15:43:44;13.60;99.90
42615;DHT22;28754;47.700;7.924;2023-04-09T15:46:31;13.40;99.90
42615;DHT22;28754;47.700;7.924;2023-04-09T15:49:21;13.50;99.90
42615;DHT22;28754;47.700;7.924;2023-04-09T15:52:08;13.40;99.90
42615;DHT22;28754;47.700;7.924;2023-04-09T15:54:57;13.40;99.90
42615;DHT22;28754;47.700;7.924;2023-04-09T15:57:49;13.40;99.90
42615;DHT22;28754;47.700;7.924;2023-04-09T16:00:38;13.20;99.90
42615;DHT22;28754;47.700;7.924;2023-04-09T16:03:40;12.70;99.90
42615;DHT22;28754;47.700;7.924;2023-04-09T16:06:27;12.50;99.90
42615;DHT22;28754;47.700;7.924;2023-04-09T16:13:39;12.20;99.90
42615;DHT22;28754;47.700;7.924;2023-04-09T16:16:26;11.90;99.90
42615;DHT22;28754;47.700;7.924;2023-04-09T16:19:13;12.00;99.90
42615;DHT22;28754;47.700;7.924;2023-04-09T16:22:00;12.30;99.90
42615;DHT22;28754;47.700;7.924;2023-04-09T16:24:46;12.30;99.90
42615;DHT22;28754;47.700;7.924;2023-04-09T16:27:33;12.10;99.90
42615;DHT22;28754;47.700;7.924;2023-04-09T16:30:20;11.90;99.90
42615;DHT22;28754;47.700;7.924;2023-04-09T16:33:07;11.80;99.90
42615;DHT22;28754;47.700;7.924;2023-04-09T16:35:54;11.70;99.90
42615;DHT22;28754;47.700;7.924;2023-04-09T16:38:41;11.70;99.90
42615;DHT22;28754;47.700;7.924;2023-04-09T16:41:27;11.80;99.90
42615;DHT22;28754;47.700;7.924;2023-04-09T16:44:14;11.60;99.90
42615;DHT22;28754;47.700;7.924;2023-04-09T16:47:03;11.30;99.90
42615;DHT22;28754;47.700;7.924;2023-04-09T16:49:51;11.30;99.90
42615;DHT22;28754;47.700;7.924;2023-04-09T16:52:38;11.20;99.90
42615;DHT22;28754;47.700;7.924;2023-04-09T16:55:25;11.10;99.90
42615;DHT22;28754;47.700;7.924;2023-04-09T16:58:12;10.80;99.90
42615;DHT22;28754;47.700;7.924;2023-04-09T17:00:58;10.80;99.90
42615;DHT22;28754;47.700;7.924;2023-04-09T17:03:49;10.60;99.90
42615;DHT22;28754;47.700;7.924;2023-04-09T17:06:36;10.60;99.90
42615;DHT22;28754;47.700;7.924;2023-04-09T17:09:22;10.40;99.90
42615;DHT22;28754;47.700;7.924;2023-04-09T17:12:10;10.40;99.90
42615;DHT22;28754;47.700;7.924;2023-04-09T17:14:57;10.40;99.90
42615;DHT22;28754;47.700;7.924;2023-04-09T17:17:44;10.20;99.90
42615;DHT22;28754;47.700;7.924;2023-04-09T17:20:31;10.20;99.90
42615;DHT22;28754;47.700;7.924;2023-04-09T17:23:18;10.00;99.90
42615;DHT22;28754;47.700;7.924;2023-04-09T17:26:05;10.00;99.90
42615;DHT22;28754;47.700;7.924;2023-04-09T17:28:51;9.90;99.90
42615;DHT22;28754;47.700;7.924;2023-04-09T17:31:38;9.70;99.90
42615;DHT22;28754;47.700;7.924;2023-04-09T17:34:25;9.60;99.90
42615;DHT22;28754;47.700;7.924;2023-04-09T17:37:11;9.50;99.90
42615;DHT22;28754;47.700;7.924;2023-04-09T17:39:58;9.50;99.90
42615;DHT22;28754;47.700;7.924;2023-04-09T17:42:45;9.40;99.90
42615;DHT22;28754;47.700;7.924;2023-04-09T17:45:32;9.40;99.90
42615;DHT22;28754;47.700;7.924;2023-04-09T17:48:19;9.30;99.90
42615;DHT22;28754;47.700;7.924;2023-04-09T17:51:06;9.20;99.90
42615;DHT22;28754;47.700;7.924;2023-04-09T17:53:52;9.20;99.90
42615;DHT22;28754;47.700;7.924;2023-04-09T17:56:39;9.20;99.90
42615;DHT22;28754;47.700;7.924;2023-04-09T17:59:26;9.10;99.90
42615;DHT22;28754;47.700;7.924;2023-04-09T18:02:13;9.00;99.90
42615;DHT22;28754;47.700;7.924;2023-04-09T18:05:01;8.90;99.90
42615;DHT22;28754;47.700;7.924;2023-04-09T18:07:51;8.80;99.90
42615;DHT22;28754;47.700;7.924;2023-04-09T18:10:47;8.70;99.90
42615;DHT22;28754;47.700;7.924;2023-04-09T18:13:39;8.60;99.90
42615;DHT22;28754;47.700;7.924;2023-04-09T18:16:54;8.50;99.90
42615;DHT22;28754;47.700;7.924;2023-04-09T18:19:43;8.50;99.90
42615;DHT22;28754;47.700;7.924;2023-04-09T18:23:08;8.60;99.90
42615;DHT22;28754;47.700;7.924;2023-04-09T18:25:55;8.50;99.90
42615;DHT22;28754;47.700;7.924;2023-04-09T18:28:41;8.40;99.90
42615;DHT22;28754;47.700;7.924;2023-04-09T18:31:28;8.40;99.90
42615;DHT22;28754;47.700;7.924;2023-04-09T18:34:15;8.30;99.90
42615;DHT22;28754;47.700;7.924;2023-04-09T18:37:02;8.30;99.90
42615;DHT22;28754;47.700;7.924;2023-04-09T18:39:48;8.30;99.90
42615;DHT22;28754;47.700;7.924;2023-04-09T18:42:35;8.20;99.90
42615;DHT22;28754;47.700;7.924;2023-04-09T18:45:22;8.00;99.90
42615;DHT22;28754;47.700;7.924;2023-04-09T18:48:11;8.10;99.90
42615;DHT22;28754;47.700;7.924;2023-04-09T18:51:29;8.10;99.90
42615;DHT22;28754;47.700;7.924;2023-04-09T18:54:59;8.00;99.90
42615;DHT22;28754;47.700;7.924;2023-04-09T18:58:26;8.00;99.90
42615;DHT22;28754;47.700;7.924;2023-04-09T19:01:13;7.80;99.90